Time,TemperatureF,DewpointF,PressureIn,WindDirection,WindDirectionDegrees,WindSpeedMPH,WindSpeedGustMPH,Humidity,HourlyPrecipIn,Conditions,Clouds,dailyrainin,SolarRadiationWatts/m^2,SoftwareType,DateUTC
2013-05-25 00:02:00,60.0,39.0,-100.00,NE,39,7.0,15.0,46,0.00,,,0.00,0.000000,,2013-05-25 04:02:00,
2013-05-25 00:33:00,58.0,35.0,-100.00,North,350,4.0,16.0,42,0.00,,,0.00,0.000000,,2013-05-25 04:33:00,
2013-05-25 00:43:00,58.0,35.0,-100.00,North,350,4.0,16.0,42,0.00,,,0.00,0.000000,,2013-05-25 04:43:00,
2013-05-25 00:53:00,58.0,35.0,-100.00,North,350,4.0,16.0,42,0.00,,,0.00,0.000000,,2013-05-25 04:53:00,
2013-05-25 01:02:00,58.0,35.0,-100.00,North,350,4.0,16.0,42,0.00,,,0.00,0.000000,,2013-05-25 05:02:00,
2013-05-25 01:32:00,52.0,34.0,-100.00,North,1,3.0,9.0,51,0.00,,,0.00,0.000000,,2013-05-25 05:32:00,
2013-05-25 01:43:00,52.0,34.0,-100.00,North,1,3.0,9.0,51,0.00,,,0.00,0.000000,,2013-05-25 05:43:00,
2013-05-25 01:52:00,52.0,34.0,-100.00,North,1,3.0,9.0,51,0.00,,,0.00,0.000000,,2013-05-25 05:52:00,
2013-05-25 02:02:00,52.0,34.0,-100.00,North,1,3.0,9.0,51,0.00,,,0.00,0.000000,,2013-05-25 06:02:00,
2013-05-25 02:32:00,47.0,38.0,-100.00,North,3,2.0,5.0,71,0.00,,,0.00,0.000000,,2013-05-25 06:32:00,
2013-05-25 02:42:00,47.0,38.0,-100.00,North,3,2.0,5.0,71,0.00,,,0.00,0.000000,,2013-05-25 06:42:00,
2013-05-25 02:52:00,47.0,38.0,-100.00,North,3,2.0,5.0,71,0.00,,,0.00,0.000000,,2013-05-25 06:52:00,
2013-05-25 03:01:00,47.0,38.0,-100.00,North,3,2.0,5.0,71,0.00,,,0.00,0.000000,,2013-05-25 07:01:00,
2013-05-25 03:32:00,52.0,37.0,-100.00,NNW,330,4.0,7.0,56,0.00,,,0.00,0.000000,,2013-05-25 07:32:00,
2013-05-25 03:42:00,52.0,37.0,-100.00,NNW,330,4.0,7.0,56,0.00,,,0.00,0.000000,,2013-05-25 07:42:00,
2013-05-25 03:52:00,52.0,37.0,-100.00,NNW,330,4.0,7.0,56,0.00,,,0.00,0.000000,,2013-05-25 07:52:00,
2013-05-25 04:02:00,52.0,37.0,-100.00,NNW,330,4.0,7.0,56,0.00,,,0.00,0.000000,,2013-05-25 08:02:00,
2013-05-25 04:32:00,56.0,38.0,-100.00,NNE,32,10.0,18.0,51,0.00,,,0.00,0.000000,,2013-05-25 08:32:00,
2013-05-25 04:42:00,56.0,38.0,-100.00,NNE,32,10.0,18.0,51,0.00,,,0.00,0.000000,,2013-05-25 08:42:00,
2013-05-25 04:52:00,56.0,38.0,-100.00,NNE,32,10.0,18.0,51,0.00,,,0.00,0.000000,,2013-05-25 08:52:00,
2013-05-25 05:02:00,56.0,38.0,-100.00,NNE,32,10.0,18.0,51,0.00,,,0.00,0.000000,,2013-05-25 09:02:00,
2013-05-25 05:33:00,49.0,37.0,-100.00,SSW,201,4.0,17.0,62,0.00,,,0.00,0.000000,,2013-05-25 09:33:00,
2013-05-25 05:43:00,49.0,37.0,-100.00,SSW,201,4.0,17.0,62,0.00,,,0.00,0.000000,,2013-05-25 09:43:00,
2013-05-25 05:53:00,49.0,37.0,-100.00,SSW,201,4.0,17.0,62,0.00,,,0.00,0.000000,,2013-05-25 09:53:00,
2013-05-25 06:03:00,49.0,37.0,-100.00,SSW,201,4.0,17.0,62,0.00,,,0.00,0.000000,,2013-05-25 10:03:00,
2013-05-25 06:33:00,49.0,36.0,-100.00,East,82,3.0,10.0,60,0.00,,,0.00,0.000000,,2013-05-25 10:33:00,
2013-05-25 06:42:00,49.0,36.0,-100.00,East,82,3.0,10.0,60,0.00,,,0.00,0.000000,,2013-05-25 10:42:00,
2013-05-25 06:52:00,49.0,36.0,-100.00,East,82,3.0,10.0,60,0.00,,,0.00,0.000000,,2013-05-25 10:52:00,
2013-05-25 07:03:00,49.0,36.0,-100.00,East,82,3.0,10.0,60,0.00,,,0.00,0.000000,,2013-05-25 11:03:00,
2013-05-25 07:32:00,47.0,36.0,-100.00,NNE,22,3.0,6.0,66,0.00,,,0.00,11.000000,,2013-05-25 11:32:00,
2013-05-25 07:42:00,47.0,36.0,-100.00,NNE,22,3.0,6.0,66,0.00,,,0.00,11.000000,,2013-05-25 11:42:00,
2013-05-25 07:52:00,47.0,36.0,-100.00,NNE,22,3.0,6.0,66,0.00,,,0.00,11.000000,,2013-05-25 11:52:00,
2013-05-25 08:01:00,47.0,36.0,-100.00,NNE,22,3.0,6.0,66,0.00,,,0.00,11.000000,,2013-05-25 12:01:00,
2013-05-25 08:32:00,56.0,39.0,-100.00,ENE,62,1.0,5.0,53,0.00,,,0.00,144.000000,,2013-05-25 12:32:00,
2013-05-25 08:42:00,56.0,39.0,-100.00,ENE,62,1.0,5.0,53,0.00,,,0.00,144.000000,,2013-05-25 12:42:00,
2013-05-25 08:52:00,56.0,39.0,-100.00,ENE,62,1.0,5.0,53,0.00,,,0.00,144.000000,,2013-05-25 12:52:00,
2013-05-25 09:02:00,56.0,39.0,-100.00,ENE,62,1.0,5.0,53,0.00,,,0.00,144.000000,,2013-05-25 13:02:00,
2013-05-25 09:32:00,60.0,37.0,-100.00,South,175,2.0,4.0,43,0.00,,,0.00,355.000000,,2013-05-25 13:32:00,
2013-05-25 09:42:00,60.0,37.0,-100.00,South,175,2.0,4.0,43,0.00,,,0.00,355.000000,,2013-05-25 13:42:00,
2013-05-25 09:52:00,60.0,37.0,-100.00,South,175,2.0,4.0,43,0.00,,,0.00,355.000000,,2013-05-25 13:52:00,
2013-05-25 10:02:00,60.0,37.0,-100.00,South,175,2.0,4.0,43,0.00,,,0.00,355.000000,,2013-05-25 14:02:00,
2013-05-25 10:32:00,67.0,41.0,-100.00,SW,215,2.0,4.0,38,0.00,,,0.00,582.000000,,2013-05-25 14:32:00,
2013-05-25 10:42:00,67.0,41.0,-100.00,SW,215,2.0,4.0,38,0.00,,,0.00,582.000000,,2013-05-25 14:42:00,
2013-05-25 10:52:00,67.0,41.0,-100.00,SW,215,2.0,4.0,38,0.00,,,0.00,582.000000,,2013-05-25 14:52:00,
2013-05-25 11:01:00,67.0,41.0,-100.00,SW,215,2.0,4.0,38,0.00,,,0.00,582.000000,,2013-05-25 15:01:00,
2013-05-25 11:33:00,69.0,32.0,-100.00,SSW,196,4.0,7.0,25,0.00,,,0.00,833.000000,,2013-05-25 15:33:00,
2013-05-25 11:43:00,69.0,32.0,-100.00,SSW,196,4.0,7.0,25,0.00,,,0.00,833.000000,,2013-05-25 15:43:00,
2013-05-25 11:53:00,69.0,32.0,-100.00,SSW,196,4.0,7.0,25,0.00,,,0.00,833.000000,,2013-05-25 15:53:00,
2013-05-25 12:03:00,69.0,32.0,-100.00,SSW,196,4.0,7.0,25,0.00,,,0.00,833.000000,,2013-05-25 16:03:00,
2013-05-25 12:33:00,71.0,34.0,-100.00,SW,216,4.0,8.0,26,0.00,,,0.00,952.000000,,2013-05-25 16:33:00,
2013-05-25 12:42:00,71.0,34.0,-100.00,SW,216,4.0,8.0,26,0.00,,,0.00,952.000000,,2013-05-25 16:42:00,
2013-05-25 12:52:00,71.0,34.0,-100.00,SW,216,4.0,8.0,26,0.00,,,0.00,952.000000,,2013-05-25 16:52:00,
2013-05-25 13:03:00,71.0,34.0,-100.00,SW,216,4.0,8.0,26,0.00,,,0.00,952.000000,,2013-05-25 17:03:00,
2013-05-25 13:33:00,73.0,40.0,-100.00,SSW,205,5.0,10.0,30,0.00,,,0.00,1073.000000,,2013-05-25 17:33:00,
2013-05-25 13:42:00,73.0,40.0,-100.00,SSW,205,5.0,10.0,30,0.00,,,0.00,1073.000000,,2013-05-25 17:42:00,
2013-05-25 13:52:00,73.0,40.0,-100.00,SSW,205,5.0,10.0,30,0.00,,,0.00,1073.000000,,2013-05-25 17:52:00,
2013-05-25 14:02:00,73.0,40.0,-100.00,SSW,205,5.0,10.0,30,0.00,,,0.00,1073.000000,,2013-05-25 18:02:00,
2013-05-25 14:32:00,74.0,41.0,-100.00,WSW,246,5.0,10.0,31,0.00,,,0.00,1111.000000,,2013-05-25 18:32:00,
2013-05-25 14:42:00,74.0,41.0,-100.00,WSW,246,5.0,10.0,31,0.00,,,0.00,1111.000000,,2013-05-25 18:42:00,
2013-05-25 14:52:00,74.0,41.0,-100.00,WSW,246,5.0,10.0,31,0.00,,,0.00,1111.000000,,2013-05-25 18:52:00,
2013-05-25 15:02:00,74.0,41.0,-100.00,WSW,246,5.0,10.0,31,0.00,,,0.00,1111.000000,,2013-05-25 19:02:00,
2013-05-25 15:32:00,75.0,42.0,-100.00,SW,218,7.0,12.0,31,0.00,,,0.00,1076.000000,,2013-05-25 19:32:00,
2013-05-25 15:42:00,75.0,42.0,-100.00,SW,218,7.0,12.0,31,0.00,,,0.00,1076.000000,,2013-05-25 19:42:00,
2013-05-25 15:52:00,75.0,42.0,-100.00,SW,218,7.0,12.0,31,0.00,,,0.00,1076.000000,,2013-05-25 19:52:00,
2013-05-25 16:02:00,75.0,42.0,-100.00,SW,218,7.0,12.0,31,0.00,,,0.00,1076.000000,,2013-05-25 20:02:00,
2013-05-25 16:32:00,78.0,42.0,-100.00,NNE,23,4.0,12.0,28,0.00,,,0.00,963.000000,,2013-05-25 20:32:00,
2013-05-25 16:42:00,78.0,42.0,-100.00,NNE,23,4.0,12.0,28,0.00,,,0.00,963.000000,,2013-05-25 20:42:00,
2013-05-25 16:52:00,78.0,42.0,-100.00,NNE,23,4.0,12.0,28,0.00,,,0.00,963.000000,,2013-05-25 20:52:00,
2013-05-25 17:02:00,78.0,42.0,-100.00,NNE,23,4.0,12.0,28,0.00,,,0.00,963.000000,,2013-05-25 21:02:00,
2013-05-25 17:33:00,77.0,36.0,-100.00,NNE,25,6.0,11.0,23,0.00,,,0.00,350.000000,,2013-05-25 21:33:00,
2013-05-25 17:43:00,77.0,36.0,-100.00,NNE,25,6.0,11.0,23,0.00,,,0.00,350.000000,,2013-05-25 21:43:00,
2013-05-25 17:53:00,77.0,36.0,-100.00,NNE,25,6.0,11.0,23,0.00,,,0.00,350.000000,,2013-05-25 21:53:00,
2013-05-25 18:03:00,77.0,36.0,-100.00,NNE,25,6.0,11.0,23,0.00,,,0.00,350.000000,,2013-05-25 22:03:00,
2013-05-25 18:33:00,75.0,39.0,-100.00,NNE,30,6.0,15.0,27,0.00,,,0.00,73.000000,,2013-05-25 22:33:00,
2013-05-25 18:42:00,75.0,39.0,-100.00,NNE,30,6.0,15.0,27,0.00,,,0.00,73.000000,,2013-05-25 22:42:00,
2013-05-25 18:52:00,75.0,39.0,-100.00,NNE,30,6.0,15.0,27,0.00,,,0.00,73.000000,,2013-05-25 22:52:00,
2013-05-25 19:02:00,75.0,39.0,-100.00,NNE,30,6.0,15.0,27,0.00,,,0.00,73.000000,,2013-05-25 23:02:00,
2013-05-25 19:32:00,74.0,35.0,-100.00,NNE,23,6.0,11.0,24,0.00,,,0.00,282.000000,,2013-05-25 23:32:00,
2013-05-25 19:42:00,74.0,35.0,-100.00,NNE,23,6.0,11.0,24,0.00,,,0.00,282.000000,,2013-05-25 23:42:00,
2013-05-25 19:53:00,74.0,35.0,-100.00,NNE,23,6.0,11.0,24,0.00,,,0.00,282.000000,,2013-05-25 23:53:00,
2013-05-25 20:02:00,74.0,35.0,-100.00,NNE,23,6.0,11.0,24,0.00,,,0.00,282.000000,,2013-05-26 00:02:00,
2013-05-25 20:32:00,69.0,30.0,-100.00,North,6,3.0,12.0,23,0.00,,,0.00,93.000000,,2013-05-26 00:32:00,
2013-05-25 20:43:00,69.0,30.0,-100.00,North,6,3.0,12.0,23,0.00,,,0.00,93.000000,,2013-05-26 00:43:00,
2013-05-25 20:53:00,69.0,30.0,-100.00,North,6,3.0,12.0,23,0.00,,,0.00,93.000000,,2013-05-26 00:53:00,
2013-05-25 21:01:00,69.0,30.0,-100.00,North,6,3.0,12.0,23,0.00,,,0.00,93.000000,,2013-05-26 01:01:00,
2013-05-25 21:32:00,63.0,33.0,-100.00,WSW,257,3.0,7.0,33,0.00,,,0.00,10.000000,,2013-05-26 01:32:00,
2013-05-25 21:42:00,63.0,33.0,-100.00,WSW,257,3.0,7.0,33,0.00,,,0.00,10.000000,,2013-05-26 01:42:00,
2013-05-25 21:53:00,63.0,33.0,-100.00,WSW,257,3.0,7.0,33,0.00,,,0.00,10.000000,,2013-05-26 01:53:00,
2013-05-25 22:02:00,63.0,33.0,-100.00,WSW,257,3.0,7.0,33,0.00,,,0.00,10.000000,,2013-05-26 02:02:00,
2013-05-25 22:32:00,60.0,38.0,-100.00,WNW,301,2.0,7.0,44,0.00,,,0.00,0.000000,,2013-05-26 02:32:00,
2013-05-25 22:42:00,60.0,38.0,-100.00,WNW,301,2.0,7.0,44,0.00,,,0.00,0.000000,,2013-05-26 02:42:00,
2013-05-25 22:52:00,60.0,38.0,-100.00,WNW,301,2.0,7.0,44,0.00,,,0.00,0.000000,,2013-05-26 02:52:00,
2013-05-25 23:01:00,60.0,38.0,-100.00,WNW,301,2.0,7.0,44,0.00,,,0.00,0.000000,,2013-05-26 03:01:00,
2013-05-25 23:33:00,56.0,38.0,-100.00,NW,311,2.0,7.0,51,0.00,,,0.00,0.000000,,2013-05-26 03:33:00,
2013-05-25 23:43:00,56.0,38.0,-100.00,NW,311,2.0,7.0,51,0.00,,,0.00,0.000000,,2013-05-26 03:43:00,
2013-05-25 23:53:00,56.0,38.0,-100.00,NW,311,2.0,7.0,51,0.00,,,0.00,0.000000,,2013-05-26 03:53:00,